sensor_id;sensor_type;location;lat;lon;timestamp;P1;durP1;ratioP1;P2;durP2;ratioP2
66384;SDS011;53426;55.872;37.462;2023-07-30T00:02:02;28.25;;;20.15;;
66384;SDS011;53426;55.872;37.462;2023-07-30T00:04:27;26.23;;;19.92;;
66384;SDS011;53426;55.872;37.462;2023-07-30T00:06:53;34.58;;;20.48;;
66384;SDS011;53426;55.872;37.462;2023-07-30T00:09:19;24.77;;;20.23;;
66384;SDS011;53426;55.872;37.462;2023-07-30T00:11:45;28.55;;;20.52;;
66384;SDS011;53426;55.872;37.462;2023-07-30T00:14:12;29.48;;;20.02;;
66384;SDS011;53426;55.872;37.462;2023-07-30T00:16:38;32.97;;;20.27;;
66384;SDS011;53426;55.872;37.462;2023-07-30T00:19:04;25.30;;;20.08;;
66384;SDS011;53426;55.872;37.462;2023-07-30T00:21:30;27.63;;;20.08;;
66384;SDS011;53426;55.872;37.462;2023-07-30T00:23:56;28.02;;;19.27;;
66384;SDS011;53426;55.872;37.462;2023-07-30T00:26:22;33.70;;;19.15;;
66384;SDS011;53426;55.872;37.462;2023-07-30T00:28:52;25.92;;;19.90;;
66384;SDS011;53426;55.872;37.462;2023-07-30T00:31:18;32.70;;;19.83;;
66384;SDS011;53426;55.872;37.462;2023-07-30T00:33:43;31.70;;;19.15;;
66384;SDS011;53426;55.872;37.462;2023-07-30T00:36:09;27.38;;;19.10;;
66384;SDS011;53426;55.872;37.462;2023-07-30T00:38:35;29.88;;;19.13;;
66384;SDS011;53426;55.872;37.462;2023-07-30T00:41:01;34.05;;;19.27;;
66384;SDS011;53426;55.872;37.462;2023-07-30T00:43:28;28.52;;;18.92;;
66384;SDS011;53426;55.872;37.462;2023-07-30T00:45:54;23.75;;;18.50;;
66384;SDS011;53426;55.872;37.462;2023-07-30T00:48:20;22.52;;;17.77;;
66384;SDS011;53426;55.872;37.462;2023-07-30T00:50:47;25.75;;;18.63;;
66384;SDS011;53426;55.872;37.462;2023-07-30T00:53:15;29.15;;;19.20;;
66384;SDS011;53426;55.872;37.462;2023-07-30T00:55:44;31.35;;;19.13;;
66384;SDS011;53426;55.872;37.462;2023-07-30T00:58:10;24.67;;;19.33;;
66384;SDS011;53426;55.872;37.462;2023-07-30T01:00:38;29.08;;;19.15;;
66384;SDS011;53426;55.872;37.462;2023-07-30T01:03:05;26.27;;;17.80;;
66384;SDS011;53426;55.872;37.462;2023-07-30T01:05:32;24.75;;;17.23;;
66384;SDS011;53426;55.872;37.462;2023-07-30T01:07:59;27.13;;;15.73;;
66384;SDS011;53426;55.872;37.462;2023-07-30T01:10:24;18.73;;;12.90;;
66384;SDS011;53426;55.872;37.462;2023-07-30T01:12:53;19.13;;;11.98;;
66384;SDS011;53426;55.872;37.462;2023-07-30T01:15:22;12.93;;;11.23;;
66384;SDS011;53426;55.872;37.462;2023-07-30T01:17:48;17.05;;;10.50;;
66384;SDS011;53426;55.872;37.462;2023-07-30T01:20:14;13.68;;;10.15;;
66384;SDS011;53426;55.872;37.462;2023-07-30T01:22:41;15.18;;;10.60;;
66384;SDS011;53426;55.872;37.462;2023-07-30T01:25:10;13.35;;;10.73;;
66384;SDS011;53426;55.872;37.462;2023-07-30T01:27:37;14.60;;;10.40;;
66384;SDS011;53426;55.872;37.462;2023-07-30T01:30:17;13.30;;;11.48;;
66384;SDS011;53426;55.872;37.462;2023-07-30T01:32:49;12.15;;;10.13;;
66384;SDS011;53426;55.872;37.462;2023-07-30T01:35:23;17.52;;;11.57;;
66384;SDS011;53426;55.872;37.462;2023-07-30T01:37:53;13.48;;;11.27;;
66384;SDS011;53426;55.872;37.462;2023-07-30T01:40:21;15.27;;;11.27;;
66384;SDS011;53426;55.872;37.462;2023-07-30T01:42:49;14.32;;;10.68;;
66384;SDS011;53426;55.872;37.462;2023-07-30T01:45:17;13.98;;;11.40;;
66384;SDS011;53426;55.872;37.462;2023-07-30T01:47:44;16.00;;;11.75;;
66384;SDS011;53426;55.872;37.462;2023-07-30T01:50:10;12.27;;;10.98;;
66384;SDS011;53426;55.872;37.462;2023-07-30T01:52:36;14.82;;;10.80;;
66384;SDS011;53426;55.872;37.462;2023-07-30T01:55:02;11.45;;;9.68;;
66384;SDS011;53426;55.872;37.462;2023-07-30T01:57:32;21.13;;;9.25;;
66384;SDS011;53426;55.872;37.462;2023-07-30T01:59:59;10.82;;;8.27;;
66384;SDS011;53426;55.872;37.462;2023-07-30T02:02:26;13.20;;;9.07;;
66384;SDS011;53426;55.872;37.462;2023-07-30T02:04:52;14.95;;;8.48;;
66384;SDS011;53426;55.872;37.462;2023-07-30T02:07:19;10.52;;;7.50;;
66384;SDS011;53426;55.872;37.462;2023-07-30T02:09:45;9.75;;;7.75;;
66384;SDS011;53426;55.872;37.462;2023-07-30T02:12:11;14.15;;;7.85;;
66384;SDS011;53426;55.872;37.462;2023-07-30T02:14:38;10.23;;;7.80;;
66384;SDS011;53426;55.872;37.462;2023-07-30T02:17:08;8.73;;;7.80;;
66384;SDS011;53426;55.872;37.462;2023-07-30T02:19:34;10.57;;;7.80;;
66384;SDS011;53426;55.872;37.462;2023-07-30T02:22:01;16.65;;;7.55;;
66384;SDS011;53426;55.872;37.462;2023-07-30T02:24:27;9.85;;;7.35;;
66384;SDS011;53426;55.872;37.462;2023-07-30T02:26:54;8.48;;;7.38;;
66384;SDS011;53426;55.872;37.462;2023-07-30T02:29:20;10.07;;;7.40;;
66384;SDS011;53426;55.872;37.462;2023-07-30T02:31:47;9.40;;;7.43;;
66384;SDS011;53426;55.872;37.462;2023-07-30T02:34:15;9.02;;;7.32;;
66384;SDS011;53426;55.872;37.462;2023-07-30T02:36:43;13.10;;;7.32;;
66384;SDS011;53426;55.872;37.462;2023-07-30T02:39:11;12.30;;;7.75;;
66384;SDS011;53426;55.872;37.462;2023-07-30T02:41:37;12.25;;;7.20;;
66384;SDS011;53426;55.872;37.462;2023-07-30T02:44:03;8.35;;;7.50;;
66384;SDS011;53426;55.872;37.462;2023-07-30T02:46:29;9.82;;;7.57;;
66384;SDS011;53426;55.872;37.462;2023-07-30T02:48:57;8.98;;;7.72;;
66384;SDS011;53426;55.872;37.462;2023-07-30T02:51:23;9.15;;;7.45;;
66384;SDS011;53426;55.872;37.462;2023-07-30T02:53:51;8.05;;;7.25;;
66384;SDS011;53426;55.872;37.462;2023-07-30T02:56:18;14.07;;;7.28;;
66384;SDS011;53426;55.872;37.462;2023-07-30T02:58:44;11.93;;;7.10;;
66384;SDS011;53426;55.872;37.462;2023-07-30T03:01:10;8.88;;;7.03;;
66384;SDS011;53426;55.872;37.462;2023-07-30T03:03:38;8.30;;;6.75;;
66384;SDS011;53426;55.872;37.462;2023-07-30T03:06:04;10.70;;;6.75;;
66384;SDS011;53426;55.872;37.462;2023-07-30T03:08:31;7.57;;;6.35;;
66384;SDS011;53426;55.872;37.462;2023-07-30T03:10:58;10.82;;;6.30;;
66384;SDS011;53426;55.872;37.462;2023-07-30T03:13:25;6.85;;;5.60;;
66384;SDS011;53426;55.872;37.462;2023-07-30T03:15:51;7.53;;;6.15;;
66384;SDS011;53426;55.872;37.462;2023-07-30T03:18:17;9.20;;;6.88;;
66384;SDS011;53426;55.872;37.462;2023-07-30T03:20:43;9.48;;;5.82;;
66384;SDS011;53426;55.872;37.462;2023-07-30T03:23:09;7.85;;;5.70;;
66384;SDS011;53426;55.872;37.462;2023-07-30T03:25:35;6.07;;;5.55;;
66384;SDS011;53426;55.872;37.462;2023-07-30T03:28:01;9.05;;;5.72;;
66384;SDS011;53426;55.872;37.462;2023-07-30T03:30:27;6.80;;;5.03;;
66384;SDS011;53426;55.872;37.462;2023-07-30T03:32:54;5.30;;;4.80;;
66384;SDS011;53426;55.872;37.462;2023-07-30T03:35:21;6.78;;;4.63;;
66384;SDS011;53426;55.872;37.462;2023-07-30T03:37:48;7.13;;;4.50;;
66384;SDS011;53426;55.872;37.462;2023-07-30T03:40:15;5.22;;;4.68;;
66384;SDS011;53426;55.872;37.462;2023-07-30T03:42:42;5.40;;;4.35;;
66384;SDS011;53426;55.872;37.462;2023-07-30T03:45:08;4.50;;;3.60;;
66384;SDS011;53426;55.872;37.462;2023-07-30T03:47:34;6.03;;;3.80;;
66384;SDS011;53426;55.872;37.462;2023-07-30T03:50:00;3.85;;;3.55;;
66384;SDS011;53426;55.872;37.462;2023-07-30T03:52:26;4.43;;;4.03;;
66384;SDS011;53426;55.872;37.462;2023-07-30T03:54:54;3.83;;;3.45;;
66384;SDS011;53426;55.872;37.462;2023-07-30T03:57:23;4.07;;;3.22;;
66384;SDS011;53426;55.872;37.462;2023-07-30T03:59:49;7.90;;;3.60;;
66384;SDS011;53426;55.872;37.462;2023-07-30T04:02:15;6.40;;;3.70;;
66384;SDS011;53426;55.872;37.462;2023-07-30T04:04:42;7.68;;;3.80;;
66384;SDS011;53426;55.872;37.462;2023-07-30T04:07:11;4.82;;;3.40;;
66384;SDS011;53426;55.872;37.462;2023-07-30T04:09:37;5.15;;;3.42;;
66384;SDS011;53426;55.872;37.462;2023-07-30T04:12:04;5.90;;;3.60;;
66384;SDS011;53426;55.872;37.462;2023-07-30T04:14:31;5.25;;;3.30;;
66384;SDS011;53426;55.872;37.462;2023-07-30T04:16:57;3.70;;;3.33;;
66384;SDS011;53426;55.872;37.462;2023-07-30T04:19:23;3.50;;;3.20;;
66384;SDS011;53426;55.872;37.462;2023-07-30T04:21:49;3.58;;;3.28;;
66384;SDS011;53426;55.872;37.462;2023-07-30T04:24:15;9.52;;;3.80;;
66384;SDS011;53426;55.872;37.462;2023-07-30T04:26:41;11.52;;;3.50;;
66384;SDS011;53426;55.872;37.462;2023-07-30T04:29:08;7.65;;;3.25;;
66384;SDS011;53426;55.872;37.462;2023-07-30T04:31:36;5.32;;;3.13;;
66384;SDS011;53426;55.872;37.462;2023-07-30T04:34:01;4.05;;;3.65;;
66384;SDS011;53426;55.872;37.462;2023-07-30T04:36:27;3.70;;;2.70;;
66384;SDS011;53426;55.872;37.462;2023-07-30T04:38:54;10.73;;;3.45;;
66384;SDS011;53426;55.872;37.462;2023-07-30T04:41:25;6.13;;;3.50;;
66384;SDS011;53426;55.872;37.462;2023-07-30T04:43:55;5.43;;;3.20;;
66384;SDS011;53426;55.872;37.462;2023-07-30T04:46:22;4.25;;;2.80;;
66384;SDS011;53426;55.872;37.462;2023-07-30T04:48:48;4.65;;;2.70;;
66384;SDS011;53426;55.872;37.462;2023-07-30T04:51:17;5.97;;;3.00;;
66384;SDS011;53426;55.872;37.462;2023-07-30T04:53:42;4.45;;;2.92;;
66384;SDS011;53426;55.872;37.462;2023-07-30T04:56:08;5.63;;;3.33;;
66384;SDS011;53426;55.872;37.462;2023-07-30T04:58:34;3.17;;;2.85;;
66384;SDS011;53426;55.872;37.462;2023-07-30T05:01:01;6.18;;;2.90;;
66384;SDS011;53426;55.872;37.462;2023-07-30T05:03:27;3.45;;;2.88;;
66384;SDS011;53426;55.872;37.462;2023-07-30T05:05:53;2.78;;;2.58;;
66384;SDS011;53426;55.872;37.462;2023-07-30T05:08:19;3.17;;;2.85;;
66384;SDS011;53426;55.872;37.462;2023-07-30T05:10:45;3.28;;;3.08;;
66384;SDS011;53426;55.872;37.462;2023-07-30T05:13:10;3.30;;;3.00;;
66384;SDS011;53426;55.872;37.462;2023-07-30T05:15:38;3.00;;;2.70;;
66384;SDS011;53426;55.872;37.462;2023-07-30T05:18:04;5.28;;;3.08;;
66384;SDS011;53426;55.872;37.462;2023-07-30T05:20:30;6.30;;;2.95;;
66384;SDS011;53426;55.872;37.462;2023-07-30T05:22:56;5.97;;;2.85;;
66384;SDS011;53426;55.872;37.462;2023-07-30T05:25:21;4.35;;;2.75;;
66384;SDS011;53426;55.872;37.462;2023-07-30T05:27:48;3.28;;;2.90;;
66384;SDS011;53426;55.872;37.462;2023-07-30T05:30:15;4.57;;;2.38;;
66384;SDS011;53426;55.872;37.462;2023-07-30T05:32:41;4.72;;;3.10;;
66384;SDS011;53426;55.872;37.462;2023-07-30T05:35:07;3.47;;;3.00;;
66384;SDS011;53426;55.872;37.462;2023-07-30T05:37:33;2.80;;;2.60;;
66384;SDS011;53426;55.872;37.462;2023-07-30T05:39:59;4.43;;;3.20;;
66384;SDS011;53426;55.872;37.462;2023-07-30T05:42:25;2.90;;;2.67;;
66384;SDS011;53426;55.872;37.462;2023-07-30T05:44:50;8.35;;;5.75;;
66384;SDS011;53426;55.872;37.462;2023-07-30T05:47:16;7.28;;;2.60;;
66384;SDS011;53426;55.872;37.462;2023-07-30T05:49:42;3.15;;;2.80;;
66384;SDS011;53426;55.872;37.462;2023-07-30T05:52:08;5.28;;;3.40;;
66384;SDS011;53426;55.872;37.462;2023-07-30T05:54:34;6.05;;;2.90;;
66384;SDS011;53426;55.872;37.462;2023-07-30T05:57:00;4.88;;;3.03;;
66384;SDS011;53426;55.872;37.462;2023-07-30T05:59:25;2.75;;;2.55;;
66384;SDS011;53426;55.872;37.462;2023-07-30T06:01:51;4.97;;;3.55;;
66384;SDS011;53426;55.872;37.462;2023-07-30T06:04:17;13.07;;;6.72;;
66384;SDS011;53426;55.872;37.462;2023-07-30T06:06:43;9.23;;;3.10;;
66384;SDS011;53426;55.872;37.462;2023-07-30T06:09:09;6.82;;;3.03;;
66384;SDS011;53426;55.872;37.462;2023-07-30T06:11:36;4.38;;;3.00;;
66384;SDS011;53426;55.872;37.462;2023-07-30T06:14:03;7.95;;;3.72;;
66384;SDS011;53426;55.872;37.462;2023-07-30T06:16:31;6.28;;;3.20;;
66384;SDS011;53426;55.872;37.462;2023-07-30T06:18:57;11.32;;;5.18;;
66384;SDS011;53426;55.872;37.462;2023-07-30T06:21:23;4.55;;;2.88;;
66384;SDS011;53426;55.872;37.462;2023-07-30T06:23:49;5.25;;;4.25;;
66384;SDS011;53426;55.872;37.462;2023-07-30T06:26:15;6.22;;;3.08;;
66384;SDS011;53426;55.872;37.462;2023-07-30T06:28:41;4.18;;;2.90;;
66384;SDS011;53426;55.872;37.462;2023-07-30T06:31:07;4.07;;;2.83;;
66384;SDS011;53426;55.872;37.462;2023-07-30T06:33:37;10.57;;;3.67;;
66384;SDS011;53426;55.872;37.462;2023-07-30T06:36:04;9.10;;;2.95;;
66384;SDS011;53426;55.872;37.462;2023-07-30T06:38:30;7.90;;;2.85;;
66384;SDS011;53426;55.872;37.462;2023-07-30T06:40:56;7.07;;;2.65;;
66384;SDS011;53426;55.872;37.462;2023-07-30T06:43:23;4.78;;;2.05;;
66384;SDS011;53426;55.872;37.462;2023-07-30T06:45:49;3.60;;;2.45;;
66384;SDS011;53426;55.872;37.462;2023-07-30T06:48:15;2.60;;;2.03;;
66384;SDS011;53426;55.872;37.462;2023-07-30T06:50:41;2.10;;;1.90;;
66384;SDS011;53426;55.872;37.462;2023-07-30T06:53:08;2.28;;;1.88;;
66384;SDS011;53426;55.872;37.462;2023-07-30T06:55:33;2.72;;;2.00;;
66384;SDS011;53426;55.872;37.462;2023-07-30T06:57:59;3.00;;;1.95;;
66384;SDS011;53426;55.872;37.462;2023-07-30T07:00:27;2.70;;;2.20;;
66384;SDS011;53426;55.872;37.462;2023-07-30T07:02:54;1.95;;;1.73;;
66384;SDS011;53426;55.872;37.462;2023-07-30T07:05:23;3.10;;;1.90;;
66384;SDS011;53426;55.872;37.462;2023-07-30T07:07:48;3.45;;;2.08;;
66384;SDS011;53426;55.872;37.462;2023-07-30T07:10:14;2.83;;;1.73;;
66384;SDS011;53426;55.872;37.462;2023-07-30T07:12:41;3.85;;;2.17;;
66384;SDS011;53426;55.872;37.462;2023-07-30T07:15:09;6.32;;;1.70;;
66384;SDS011;53426;55.872;37.462;2023-07-30T07:17:35;2.20;;;1.90;;
66384;SDS011;53426;55.872;37.462;2023-07-30T07:22:56;3.97;;;1.90;;
66384;SDS011;53426;55.872;37.462;2023-07-30T07:25:26;6.03;;;2.15;;
66384;SDS011;53426;55.872;37.462;2023-07-30T07:28:02;3.88;;;2.15;;
66384;SDS011;53426;55.872;37.462;2023-07-30T07:30:29;3.40;;;1.70;;
66384;SDS011;53426;55.872;37.462;2023-07-30T07:32:55;5.22;;;2.00;;
66384;SDS011;53426;55.872;37.462;2023-07-30T07:35:23;5.32;;;1.77;;
66384;SDS011;53426;55.872;37.462;2023-07-30T07:37:49;5.55;;;1.80;;
66384;SDS011;53426;55.872;37.462;2023-07-30T07:40:16;3.60;;;2.00;;
66384;SDS011;53426;55.872;37.462;2023-07-30T07:42:43;4.15;;;1.83;;
66384;SDS011;53426;55.872;37.462;2023-07-30T07:45:10;2.17;;;1.60;;
66384;SDS011;53426;55.872;37.462;2023-07-30T07:47:36;4.28;;;1.90;;
66384;SDS011;53426;55.872;37.462;2023-07-30T07:50:03;2.95;;;1.67;;
66384;SDS011;53426;55.872;37.462;2023-07-30T07:52:31;4.40;;;1.95;;
66384;SDS011;53426;55.872;37.462;2023-07-30T07:54:58;3.15;;;1.60;;
66384;SDS011;53426;55.872;37.462;2023-07-30T07:57:27;3.08;;;1.70;;
66384;SDS011;53426;55.872;37.462;2023-07-30T07:59:56;2.67;;;1.70;;
66384;SDS011;53426;55.872;37.462;2023-07-30T08:02:22;3.83;;;2.78;;
66384;SDS011;53426;55.872;37.462;2023-07-30T08:04:49;2.08;;;1.80;;
66384;SDS011;53426;55.872;37.462;2023-07-30T08:07:19;1.80;;;1.67;;
66384;SDS011;53426;55.872;37.462;2023-07-30T08:09:50;1.75;;;1.65;;
66384;SDS011;53426;55.872;37.462;2023-07-30T08:12:19;5.28;;;2.03;;
66384;SDS011;53426;55.872;37.462;2023-07-30T08:14:51;2.90;;;1.98;;
66384;SDS011;53426;55.872;37.462;2023-07-30T08:17:18;3.30;;;1.90;;
66384;SDS011;53426;55.872;37.462;2023-07-30T08:19:51;2.20;;;1.98;;
66384;SDS011;53426;55.872;37.462;2023-07-30T08:22:17;3.63;;;2.45;;
66384;SDS011;53426;55.872;37.462;2023-07-30T08:24:44;2.30;;;1.98;;
66384;SDS011;53426;55.872;37.462;2023-07-30T08:27:10;2.55;;;2.00;;
66384;SDS011;53426;55.872;37.462;2023-07-30T08:29:39;3.50;;;1.80;;
66384;SDS011;53426;55.872;37.462;2023-07-30T08:32:06;4.28;;;2.10;;
66384;SDS011;53426;55.872;37.462;2023-07-30T08:34:33;6.75;;;1.95;;
66384;SDS011;53426;55.872;37.462;2023-07-30T08:36:59;2.45;;;1.88;;
66384;SDS011;53426;55.872;37.462;2023-07-30T08:39:28;4.85;;;1.83;;
66384;SDS011;53426;55.872;37.462;2023-07-30T08:41:56;2.50;;;1.80;;
66384;SDS011;53426;55.872;37.462;2023-07-30T08:44:22;2.75;;;1.83;;
66384;SDS011;53426;55.872;37.462;2023-07-30T08:46:47;4.47;;;1.92;;
66384;SDS011;53426;55.872;37.462;2023-07-30T08:49:15;5.05;;;1.63;;
66384;SDS011;53426;55.872;37.462;2023-07-30T08:51:42;3.08;;;1.67;;
66384;SDS011;53426;55.872;37.462;2023-07-30T08:54:11;1.70;;;1.60;;
66384;SDS011;53426;55.872;37.462;2023-07-30T08:56:39;3.33;;;1.70;;
66384;SDS011;53426;55.872;37.462;2023-07-30T08:59:07;2.72;;;1.73;;
66384;SDS011;53426;55.872;37.462;2023-07-30T09:01:40;1.65;;;1.50;;
66384;SDS011;53426;55.872;37.462;2023-07-30T09:04:33;2.00;;;1.80;;
66384;SDS011;53426;55.872;37.462;2023-07-30T09:08:07;2.00;;;1.80;;
66384;SDS011;53426;55.872;37.462;2023-07-30T09:10:34;4.00;;;1.83;;
66384;SDS011;53426;55.872;37.462;2023-07-30T09:13:01;1.80;;;1.60;;
66384;SDS011;53426;55.872;37.462;2023-07-30T09:16:00;1.90;;;1.48;;
66384;SDS011;53426;55.872;37.462;2023-07-30T09:18:41;2.03;;;1.70;;
66384;SDS011;53426;55.872;37.462;2023-07-30T09:21:12;3.08;;;1.75;;
66384;SDS011;53426;55.872;37.462;2023-07-30T09:23:42;2.35;;;1.60;;
66384;SDS011;53426;55.872;37.462;2023-07-30T09:26:19;3.72;;;1.92;;
66384;SDS011;53426;55.872;37.462;2023-07-30T09:28:52;1.95;;;1.73;;
66384;SDS011;53426;55.872;37.462;2023-07-30T09:39:29;2.88;;;1.67;;
66384;SDS011;53426;55.872;37.462;2023-07-30T09:41:59;4.85;;;2.97;;
66384;SDS011;53426;55.872;37.462;2023-07-30T09:44:27;4.35;;;2.20;;
66384;SDS011;53426;55.872;37.462;2023-07-30T09:46:57;2.75;;;1.73;;
66384;SDS011;53426;55.872;37.462;2023-07-30T09:49:26;2.38;;;1.95;;
66384;SDS011;53426;55.872;37.462;2023-07-30T09:51:55;8.30;;;2.25;;
66384;SDS011;53426;55.872;37.462;2023-07-30T09:55:32;2.25;;;2.00;;
66384;SDS011;53426;55.872;37.462;2023-07-30T09:58:04;6.65;;;2.05;;
66384;SDS011;53426;55.872;37.462;2023-07-30T10:01:13;1.83;;;1.73;;
66384;SDS011;53426;55.872;37.462;2023-07-30T10:03:40;2.25;;;1.90;;
66384;SDS011;53426;55.872;37.462;2023-07-30T10:06:06;1.80;;;1.58;;
66384;SDS011;53426;55.872;37.462;2023-07-30T10:08:36;5.38;;;4.70;;
66384;SDS011;53426;55.872;37.462;2023-07-30T10:11:05;2.00;;;1.90;;
66384;SDS011;53426;55.872;37.462;2023-07-30T10:13:43;1.85;;;1.75;;
66384;SDS011;53426;55.872;37.462;2023-07-30T10:18:56;1.60;;;1.50;;
66384;SDS011;53426;55.872;37.462;2023-07-30T10:21:25;1.83;;;1.60;;
66384;SDS011;53426;55.872;37.462;2023-07-30T10:24:00;4.63;;;1.60;;
66384;SDS011;53426;55.872;37.462;2023-07-30T10:26:32;1.58;;;1.48;;
66384;SDS011;53426;55.872;37.462;2023-07-30T10:29:36;1.80;;;1.48;;
66384;SDS011;53426;55.872;37.462;2023-07-30T10:31:55;1.80;;;1.70;;
66384;SDS011;53426;55.872;37.462;2023-07-30T10:34:26;2.00;;;1.80;;
66384;SDS011;53426;55.872;37.462;2023-07-30T10:37:10;3.92;;;1.50;;
66384;SDS011;53426;55.872;37.462;2023-07-30T10:39:38;4.90;;;1.75;;
66384;SDS011;53426;55.872;37.462;2023-07-30T10:42:06;2.33;;;1.90;;
66384;SDS011;53426;55.872;37.462;2023-07-30T10:44:34;1.70;;;1.60;;
66384;SDS011;53426;55.872;37.462;2023-07-30T10:47:03;6.65;;;1.60;;
66384;SDS011;53426;55.872;37.462;2023-07-30T10:49:29;3.80;;;2.05;;
66384;SDS011;53426;55.872;37.462;2023-07-30T10:52:02;2.47;;;1.75;;
66384;SDS011;53426;55.872;37.462;2023-07-30T10:54:35;3.08;;;1.73;;
66384;SDS011;53426;55.872;37.462;2023-07-30T10:57:02;2.05;;;1.70;;
66384;SDS011;53426;55.872;37.462;2023-07-30T10:59:33;5.13;;;1.77;;
66384;SDS011;53426;55.872;37.462;2023-07-30T11:02:02;2.75;;;1.83;;
66384;SDS011;53426;55.872;37.462;2023-07-30T11:04:29;3.88;;;3.30;;
66384;SDS011;53426;55.872;37.462;2023-07-30T11:07:00;3.20;;;1.90;;
66384;SDS011;53426;55.872;37.462;2023-07-30T11:09:27;4.95;;;2.10;;
66384;SDS011;53426;55.872;37.462;2023-07-30T11:11:54;2.00;;;1.90;;
66384;SDS011;53426;55.872;37.462;2023-07-30T11:14:23;2.95;;;1.80;;
66384;SDS011;53426;55.872;37.462;2023-07-30T11:17:01;3.35;;;1.63;;
66384;SDS011;53426;55.872;37.462;2023-07-30T11:19:29;2.08;;;1.88;;
66384;SDS011;53426;55.872;37.462;2023-07-30T11:21:57;2.80;;;1.70;;
66384;SDS011;53426;55.872;37.462;2023-07-30T11:24:34;1.85;;;1.75;;
66384;SDS011;53426;55.872;37.462;2023-07-30T11:27:04;2.08;;;1.90;;
66384;SDS011;53426;55.872;37.462;2023-07-30T11:29:30;2.10;;;1.90;;
66384;SDS011;53426;55.872;37.462;2023-07-30T11:32:00;2.00;;;1.90;;
66384;SDS011;53426;55.872;37.462;2023-07-30T11:34:29;3.80;;;2.20;;
66384;SDS011;53426;55.872;37.462;2023-07-30T11:36:56;2.20;;;2.00;;
66384;SDS011;53426;55.872;37.462;2023-07-30T11:39:23;3.88;;;2.25;;
66384;SDS011;53426;55.872;37.462;2023-07-30T11:41:53;2.05;;;1.88;;
66384;SDS011;53426;55.872;37.462;2023-07-30T11:44:29;1.90;;;1.80;;
66384;SDS011;53426;55.872;37.462;2023-07-30T11:46:57;2.45;;;2.00;;
66384;SDS011;53426;55.872;37.462;2023-07-30T11:49:23;3.03;;;2.00;;
66384;SDS011;53426;55.872;37.462;2023-07-30T11:51:50;2.20;;;2.00;;
66384;SDS011;53426;55.872;37.462;2023-07-30T11:54:29;1.77;;;1.67;;
66384;SDS011;53426;55.872;37.462;2023-07-30T11:56:57;2.42;;;1.85;;
66384;SDS011;53426;55.872;37.462;2023-07-30T11:59:26;1.90;;;1.80;;
66384;SDS011;53426;55.872;37.462;2023-07-30T12:01:53;3.67;;;2.35;;
66384;SDS011;53426;55.872;37.462;2023-07-30T12:04:19;3.05;;;2.13;;
66384;SDS011;53426;55.872;37.462;2023-07-30T12:06:49;3.53;;;1.95;;
66384;SDS011;53426;55.872;37.462;2023-07-30T12:09:21;2.08;;;1.98;;
66384;SDS011;53426;55.872;37.462;2023-07-30T12:11:49;2.00;;;1.90;;
66384;SDS011;53426;55.872;37.462;2023-07-30T12:14:15;2.35;;;2.00;;
66384;SDS011;53426;55.872;37.462;2023-07-30T12:16:42;1.95;;;1.85;;
66384;SDS011;53426;55.872;37.462;2023-07-30T12:19:08;4.25;;;3.85;;
66384;SDS011;53426;55.872;37.462;2023-07-30T12:21:34;2.20;;;1.70;;
66384;SDS011;53426;55.872;37.462;2023-07-30T12:24:02;3.08;;;1.73;;
66384;SDS011;53426;55.872;37.462;2023-07-30T12:26:29;2.08;;;1.98;;
66384;SDS011;53426;55.872;37.462;2023-07-30T12:28:57;2.22;;;2.10;;
66384;SDS011;53426;55.872;37.462;2023-07-30T12:31:27;3.47;;;1.80;;
66384;SDS011;53426;55.872;37.462;2023-07-30T12:33:54;5.75;;;2.08;;
66384;SDS011;53426;55.872;37.462;2023-07-30T12:36:21;2.17;;;2.00;;
66384;SDS011;53426;55.872;37.462;2023-07-30T12:38:47;3.22;;;2.20;;
66384;SDS011;53426;55.872;37.462;2023-07-30T12:41:13;1.98;;;1.88;;
66384;SDS011;53426;55.872;37.462;2023-07-30T12:43:41;4.18;;;2.10;;
66384;SDS011;53426;55.872;37.462;2023-07-30T12:46:07;6.10;;;2.28;;
66384;SDS011;53426;55.872;37.462;2023-07-30T12:48:34;1.90;;;1.80;;
66384;SDS011;53426;55.872;37.462;2023-07-30T12:51:00;2.65;;;2.03;;
66384;SDS011;53426;55.872;37.462;2023-07-30T12:53:26;2.58;;;1.92;;
66384;SDS011;53426;55.872;37.462;2023-07-30T12:55:53;4.65;;;1.92;;
66384;SDS011;53426;55.872;37.462;2023-07-30T12:58:19;2.95;;;1.92;;
66384;SDS011;53426;55.872;37.462;2023-07-30T13:00:54;1.90;;;1.80;;
66384;SDS011;53426;55.872;37.462;2023-07-30T13:03:22;2.03;;;1.92;;
66384;SDS011;53426;55.872;37.462;2023-07-30T13:05:48;3.05;;;1.90;;
66384;SDS011;53426;55.872;37.462;2023-07-30T13:08:14;3.05;;;2.15;;
66384;SDS011;53426;55.872;37.462;2023-07-30T13:10:41;5.13;;;2.00;;
66384;SDS011;53426;55.872;37.462;2023-07-30T13:13:07;2.92;;;1.83;;
66384;SDS011;53426;55.872;37.462;2023-07-30T13:15:33;2.03;;;1.80;;
66384;SDS011;53426;55.872;37.462;2023-07-30T13:17:59;4.40;;;2.40;;
66384;SDS011;53426;55.872;37.462;2023-07-30T13:20:25;1.92;;;1.83;;
66384;SDS011;53426;55.872;37.462;2023-07-30T13:22:54;2.90;;;1.83;;
66384;SDS011;53426;55.872;37.462;2023-07-30T13:25:20;4.32;;;2.05;;
66384;SDS011;53426;55.872;37.462;2023-07-30T13:27:46;2.30;;;1.88;;
66384;SDS011;53426;55.872;37.462;2023-07-30T13:30:12;2.08;;;1.92;;
66384;SDS011;53426;55.872;37.462;2023-07-30T13:32:40;4.35;;;2.10;;
66384;SDS011;53426;55.872;37.462;2023-07-30T13:35:06;2.47;;;1.90;;
66384;SDS011;53426;55.872;37.462;2023-07-30T13:37:32;3.25;;;1.95;;
66384;SDS011;53426;55.872;37.462;2023-07-30T13:39:58;4.03;;;2.00;;
66384;SDS011;53426;55.872;37.462;2023-07-30T13:42:24;2.25;;;2.05;;
66384;SDS011;53426;55.872;37.462;2023-07-30T13:44:51;2.03;;;1.92;;
66384;SDS011;53426;55.872;37.462;2023-07-30T13:47:22;2.00;;;1.90;;
66384;SDS011;53426;55.872;37.462;2023-07-30T13:49:49;2.10;;;1.90;;
66384;SDS011;53426;55.872;37.462;2023-07-30T13:52:16;2.88;;;1.98;;
66384;SDS011;53426;55.872;37.462;2023-07-30T13:54:49;2.78;;;2.42;;
66384;SDS011;53426;55.872;37.462;2023-07-30T14:00:20;3.05;;;1.80;;
66384;SDS011;53426;55.872;37.462;2023-07-30T14:02:46;2.35;;;1.90;;
66384;SDS011;53426;55.872;37.462;2023-07-30T14:05:16;2.25;;;1.88;;
66384;SDS011;53426;55.872;37.462;2023-07-30T14:07:42;2.30;;;1.80;;
66384;SDS011;53426;55.872;37.462;2023-07-30T14:10:09;2.15;;;1.92;;
66384;SDS011;53426;55.872;37.462;2023-07-30T14:12:35;1.75;;;1.65;;
66384;SDS011;53426;55.872;37.462;2023-07-30T14:15:02;1.92;;;1.60;;
66384;SDS011;53426;55.872;37.462;2023-07-30T14:17:31;2.08;;;1.95;;
66384;SDS011;53426;55.872;37.462;2023-07-30T14:19:57;5.85;;;2.55;;
66384;SDS011;53426;55.872;37.462;2023-07-30T14:22:23;2.15;;;1.95;;
66384;SDS011;53426;55.872;37.462;2023-07-30T14:24:49;4.63;;;2.00;;
66384;SDS011;53426;55.872;37.462;2023-07-30T14:27:15;1.90;;;1.80;;
66384;SDS011;53426;55.872;37.462;2023-07-30T14:29:41;2.70;;;1.60;;
66384;SDS011;53426;55.872;37.462;2023-07-30T14:35:07;2.22;;;2.03;;
66384;SDS011;53426;55.872;37.462;2023-07-30T14:37:34;5.30;;;2.05;;
66384;SDS011;53426;55.872;37.462;2023-07-30T14:40:00;2.13;;;1.90;;
66384;SDS011;53426;55.872;37.462;2023-07-30T14:42:28;4.00;;;1.85;;
66384;SDS011;53426;55.872;37.462;2023-07-30T14:44:56;6.03;;;1.90;;
66384;SDS011;53426;55.872;37.462;2023-07-30T14:47:22;5.97;;;2.03;;
66384;SDS011;53426;55.872;37.462;2023-07-30T14:49:49;2.00;;;1.80;;
66384;SDS011;53426;55.872;37.462;2023-07-30T14:52:18;4.07;;;1.80;;
66384;SDS011;53426;55.872;37.462;2023-07-30T14:54:47;1.77;;;1.50;;
66384;SDS011;53426;55.872;37.462;2023-07-30T14:57:13;2.67;;;1.90;;